Bonito, Brazil
Current Conditions -  °F | °C
As of 8:00 PM on Thursday 20 Nov 2014 (Local Time) from SBRF Reporting Station
Few Clouds Few Clouds  
Wind Chill: 79°   Ceiling: Unl
Heat Index: 82°   Visibility: 6mi
Dew Point: 72°   Wind: 8mph
Humidity: 78%   Direction: 110°ESE
Pressure: 29.91"   Gusts: NA
Location:  8.47°S, 35.73°W
Report Text: SBRF 202300Z 11007KT 9999 FEW022 26/22 Q1013
Loading
Personal Weather Stations






























Interactive Weather Map New forecast layout! Learn more

10-Day Weather Forecast

Advertisements
Track Severe Weather on mobile